createdAt,value
2023-05-08T00:00:42.193Z,63.87
2023-05-08T00:03:10.296Z,64.60
2023-05-08T00:05:38.205Z,64.22
2023-05-08T00:08:07.655Z,64.40
2023-05-08T00:10:35.766Z,64.80
2023-05-08T00:13:03.735Z,64.43
2023-05-08T00:15:31.770Z,63.55
2023-05-08T00:17:59.758Z,64.03
2023-05-08T00:20:28.004Z,63.67
2023-05-08T00:22:56.789Z,62.74
2023-05-08T00:25:26.189Z,63.48
2023-05-08T00:27:54.223Z,63.97
2023-05-08T00:30:22.253Z,64.56
2023-05-08T00:32:50.224Z,65.27
2023-05-08T00:35:18.153Z,66.21
2023-05-08T00:37:46.128Z,65.00
2023-05-08T00:40:14.318Z,64.19
2023-05-08T00:42:43.885Z,65.28
2023-05-08T00:45:12.784Z,63.79
2023-05-08T00:47:41.144Z,64.41
2023-05-08T00:50:10.949Z,64.06
2023-05-08T00:52:39.908Z,63.47
2023-05-08T00:55:08.653Z,63.66
2023-05-08T00:57:37.932Z,64.41
2023-05-08T01:00:08.751Z,64.87
2023-05-08T01:02:37.109Z,64.45
2023-05-08T01:05:05.511Z,65.06
2023-05-08T01:07:33.614Z,65.79
2023-05-08T01:10:01.543Z,65.98
2023-05-08T01:12:41.074Z,65.99
2023-05-08T01:15:16.991Z,64.34
2023-05-08T01:17:57.240Z,64.55
2023-05-08T01:20:36.868Z,63.81
2023-05-08T01:23:39.692Z,64.85
2023-05-08T01:26:45.895Z,65.39
2023-05-08T01:29:49.068Z,66.64
2023-05-08T01:32:21.332Z,64.53
2023-05-08T01:34:58.787Z,65.27
2023-05-08T01:37:33.946Z,65.11
2023-05-08T01:40:11.327Z,65.97
2023-05-08T01:42:54.638Z,66.42
2023-05-08T01:45:27.059Z,66.78
2023-05-08T01:48:03.074Z,66.06
2023-05-08T01:50:36.690Z,66.13
2023-05-08T01:53:14.642Z,67.63
2023-05-08T01:55:44.946Z,66.26
2023-05-08T01:58:13.788Z,66.37
2023-05-08T02:00:44.185Z,65.80
2023-05-08T02:03:15.439Z,65.80
2023-05-08T02:05:45.110Z,65.27
2023-05-08T02:08:15.172Z,65.17
2023-05-08T02:10:44.421Z,64.11
2023-05-08T02:13:14.309Z,64.53
2023-05-08T02:15:43.972Z,64.29
2023-05-08T02:18:14.368Z,64.31
2023-05-08T02:20:43.294Z,64.52
2023-05-08T02:23:12.626Z,65.30
2023-05-08T02:25:41.206Z,65.55
2023-05-08T02:28:09.865Z,65.21
2023-05-08T02:30:38.486Z,65.04
2023-05-08T02:33:09.401Z,65.49
2023-05-08T02:35:40.407Z,65.77
2023-05-08T02:38:10.816Z,65.60
2023-05-08T02:40:42.981Z,66.03
2023-05-08T02:43:11.342Z,66.15
2023-05-08T02:45:45.853Z,66.65
2023-05-08T02:48:21.190Z,65.46
2023-05-08T02:50:59.262Z,66.40
2023-05-08T02:53:35.661Z,67.46
2023-05-08T02:56:11.221Z,67.75
2023-05-08T02:58:47.307Z,67.53
2023-05-08T03:01:22.907Z,68.16
2023-05-08T03:03:57.593Z,69.49
2023-05-08T03:06:29.394Z,66.61
2023-05-08T03:09:01.461Z,67.90
2023-05-08T03:11:39.879Z,66.68
2023-05-08T03:14:12.144Z,65.42
2023-05-08T03:16:42.786Z,67.93
2023-05-08T03:19:20.025Z,66.91
2023-05-08T03:21:52.596Z,67.22
2023-05-08T03:24:23.823Z,66.67
2023-05-08T03:26:51.916Z,66.63
2023-05-08T03:29:20.210Z,66.58
2023-05-08T03:31:49.513Z,65.49
2023-05-08T03:34:20.506Z,66.37
2023-05-08T03:36:48.414Z,64.27
2023-05-08T03:39:17.851Z,64.52
2023-05-08T03:41:46.409Z,65.36
2023-05-08T03:44:15.750Z,65.17
2023-05-08T03:46:44.203Z,65.11
2023-05-08T03:49:13.292Z,66.22
2023-05-08T03:51:42.146Z,65.65
2023-05-08T03:54:10.088Z,65.96
2023-05-08T03:56:39.408Z,65.68
2023-05-08T03:59:17.027Z,66.51
2023-05-08T04:01:53.935Z,65.60
2023-05-08T04:04:27.572Z,65.96
2023-05-08T04:07:04.170Z,66.28
2023-05-08T04:09:38.366Z,65.38
2023-05-08T04:12:22.922Z,66.10
2023-05-08T04:14:56.528Z,64.61
2023-05-08T04:17:34.827Z,63.25
2023-05-08T04:20:06.390Z,63.16
2023-05-08T04:22:35.869Z,63.24
2023-05-08T04:25:08.000Z,62.46
2023-05-08T04:27:39.534Z,62.06
2023-05-08T04:30:10.212Z,63.28
2023-05-08T04:32:40.930Z,64.04
2023-05-08T04:35:10.808Z,65.30
2023-05-08T04:37:38.825Z,65.02
2023-05-08T04:40:08.148Z,64.49
2023-05-08T04:42:39.409Z,63.88
2023-05-08T04:45:08.344Z,62.73
2023-05-08T04:47:36.373Z,62.88
2023-05-08T04:50:04.422Z,62.63
2023-05-08T04:52:32.377Z,62.58
2023-05-08T04:55:00.603Z,62.65
2023-05-08T04:57:28.596Z,62.87
2023-05-08T04:59:57.977Z,60.52
2023-05-08T05:02:27.056Z,62.67
2023-05-08T05:04:58.728Z,62.02
2023-05-08T05:07:26.606Z,60.91
2023-05-08T05:09:54.450Z,59.99
2023-05-08T05:12:22.387Z,60.05
2023-05-08T05:14:50.297Z,59.59
2023-05-08T05:17:19.536Z,57.70
2023-05-08T05:19:47.464Z,56.13
2023-05-08T05:22:15.339Z,56.20
2023-05-08T05:24:43.253Z,55.76
2023-05-08T05:27:11.131Z,54.74
2023-05-08T05:29:39.063Z,54.48
2023-05-08T05:32:07.538Z,55.19
2023-05-08T05:34:37.419Z,55.46
2023-05-08T05:37:05.326Z,55.27
2023-05-08T05:39:33.207Z,54.81
2023-05-08T05:42:01.131Z,54.97
2023-05-08T05:44:29.088Z,55.73
2023-05-08T05:46:57.022Z,53.33
2023-05-08T05:49:25.341Z,52.88
2023-05-08T05:51:54.612Z,52.51
2023-05-08T05:54:22.566Z,46.83
2023-05-08T05:56:50.426Z,43.49
2023-05-08T05:59:18.430Z,42.70
2023-05-08T06:01:46.728Z,43.59
2023-05-08T06:04:14.674Z,44.37
2023-05-08T06:06:42.631Z,44.85
2023-05-08T06:09:11.926Z,45.17
2023-05-08T06:11:39.892Z,43.94
2023-05-08T06:14:07.809Z,43.41
2023-05-08T06:16:36.156Z,43.15
2023-05-08T06:19:04.148Z,42.50
2023-05-08T06:21:32.005Z,42.97
2023-05-08T06:23:59.916Z,45.06
2023-05-08T06:26:29.194Z,45.69
2023-05-08T06:28:57.122Z,46.95
2023-05-08T06:31:25.208Z,47.00
2023-05-08T06:33:53.129Z,47.55
2023-05-08T06:36:21.070Z,47.10
2023-05-08T06:38:49.001Z,47.07
2023-05-08T06:41:17.047Z,45.45
2023-05-08T06:43:46.328Z,45.86
2023-05-08T06:46:14.295Z,46.75
2023-05-08T06:48:42.249Z,47.62
2023-05-08T06:51:10.639Z,47.87
2023-05-08T06:53:38.557Z,48.08
2023-05-08T06:56:07.130Z,48.61
2023-05-08T06:58:35.827Z,47.11
2023-05-08T07:01:05.144Z,46.92
2023-05-08T07:03:33.215Z,48.22
2023-05-08T07:06:01.119Z,47.41
2023-05-08T07:08:30.194Z,48.49
2023-05-08T07:10:58.085Z,47.23
2023-05-08T07:13:26.160Z,47.52
2023-05-08T07:15:54.158Z,47.47
2023-05-08T07:18:23.644Z,45.93
2023-05-08T07:20:51.523Z,45.65
2023-05-08T07:23:19.573Z,45.93
2023-05-08T07:25:47.458Z,46.28
2023-05-08T07:28:15.507Z,45.08
2023-05-08T07:30:43.357Z,44.87
2023-05-08T07:33:11.560Z,45.16
2023-05-08T07:35:41.510Z,46.40
2023-05-08T07:38:09.609Z,46.90
2023-05-08T07:40:37.752Z,46.94
2023-05-08T07:43:05.637Z,44.64
2023-05-08T07:45:34.657Z,44.89
2023-05-08T07:48:02.627Z,45.38
2023-05-08T07:50:31.482Z,46.19
2023-05-08T07:53:00.879Z,46.81
2023-05-08T07:55:28.903Z,46.70
2023-05-08T07:57:56.885Z,47.06
2023-05-08T08:00:24.820Z,47.43
2023-05-08T08:02:52.884Z,46.80
2023-05-08T08:05:21.106Z,46.14
2023-05-08T08:07:49.108Z,47.49
2023-05-08T08:10:18.455Z,46.74
2023-05-08T08:12:46.516Z,46.78
2023-05-08T08:15:14.679Z,46.62
2023-05-08T08:17:42.738Z,45.92
2023-05-08T08:20:11.114Z,44.66
2023-05-08T08:22:39.173Z,44.98
2023-05-08T08:25:07.957Z,43.83
2023-05-08T08:27:37.205Z,44.24
2023-05-08T08:30:16.904Z,45.38
2023-05-08T08:32:46.666Z,46.50
2023-05-08T08:35:14.942Z,44.50
2023-05-08T08:37:43.667Z,45.85
2023-05-08T08:40:12.067Z,46.23
2023-05-08T08:42:41.904Z,46.44
2023-05-08T08:45:10.349Z,46.99
2023-05-08T08:47:39.925Z,46.59
2023-05-08T08:50:12.018Z,46.28
2023-05-08T08:52:48.146Z,46.58
2023-05-08T08:55:17.829Z,46.52
2023-05-08T08:57:54.298Z,45.74
2023-05-08T09:00:24.546Z,45.80
2023-05-08T09:02:53.431Z,46.25
2023-05-08T09:05:23.556Z,44.68
2023-05-08T09:07:55.439Z,45.57
2023-05-08T09:10:25.155Z,44.05
2023-05-08T09:12:54.631Z,44.19
2023-05-08T09:15:22.658Z,44.80
2023-05-08T09:17:50.737Z,44.27
2023-05-08T09:20:18.841Z,42.54
2023-05-08T09:22:47.603Z,42.23
2023-05-08T09:25:15.737Z,44.59
2023-05-08T09:27:43.883Z,44.29
2023-05-08T09:30:14.549Z,43.19
2023-05-08T09:32:44.371Z,43.42
2023-05-08T09:35:13.616Z,43.30
2023-05-08T09:37:43.398Z,43.38
2023-05-08T09:40:16.697Z,42.93
2023-05-08T09:42:44.901Z,42.82
2023-05-08T09:45:28.261Z,43.13
2023-05-08T09:47:56.389Z,42.39
2023-05-08T09:50:25.307Z,42.01
2023-05-08T09:52:53.462Z,41.80
2023-05-08T09:55:21.553Z,41.67
2023-05-08T09:57:57.869Z,41.96
2023-05-08T10:00:28.482Z,41.66
2023-05-08T10:02:58.398Z,41.24
2023-05-08T10:05:29.968Z,41.29
2023-05-08T10:07:58.980Z,40.53
2023-05-08T10:10:27.888Z,41.38
2023-05-08T10:12:57.684Z,40.80
2023-05-08T10:15:30.259Z,41.04
2023-05-08T10:18:04.568Z,41.47
2023-05-08T10:20:33.729Z,41.50
2023-05-08T10:23:02.579Z,42.81
2023-05-08T10:25:33.806Z,43.16
2023-05-08T10:28:11.134Z,43.26
2023-05-08T10:30:45.677Z,42.70
2023-05-08T10:33:18.040Z,43.11
2023-05-08T10:35:46.709Z,42.43
2023-05-08T10:38:17.899Z,42.77
2023-05-08T10:40:46.322Z,42.33
2023-05-08T10:43:14.486Z,42.45
2023-05-08T10:45:44.630Z,42.56
2023-05-08T10:48:20.492Z,41.14
2023-05-08T10:50:58.576Z,41.37
2023-05-08T10:53:36.103Z,41.22
2023-05-08T10:56:04.344Z,41.02
2023-05-08T10:58:33.627Z,42.89
2023-05-08T11:01:18.502Z,40.89
2023-05-08T11:03:55.117Z,39.98
2023-05-08T11:06:45.539Z,41.10
2023-05-08T11:09:22.041Z,42.21
2023-05-08T11:12:00.495Z,42.78
2023-05-08T11:14:29.957Z,41.45
2023-05-08T11:17:09.974Z,41.95
2023-05-08T11:19:39.242Z,41.09
2023-05-08T11:22:24.871Z,41.69
2023-05-08T11:24:58.489Z,41.47
2023-05-08T11:27:40.932Z,41.70
2023-05-08T11:30:26.752Z,41.79
2023-05-08T11:33:13.910Z,41.64
2023-05-08T11:35:43.107Z,42.00
2023-05-08T11:38:18.553Z,41.05
2023-05-08T11:40:48.190Z,40.91
2023-05-08T11:43:52.713Z,40.50
2023-05-08T11:46:22.524Z,41.14
2023-05-08T11:49:01.356Z,42.01
2023-05-08T11:51:32.622Z,40.31
2023-05-08T11:54:01.013Z,41.33
2023-05-08T11:56:29.107Z,40.99
2023-05-08T11:59:04.673Z,40.54
2023-05-08T12:01:33.226Z,40.40
2023-05-08T12:04:03.772Z,40.94
2023-05-08T12:06:32.957Z,40.97
2023-05-08T12:09:01.252Z,42.74
2023-05-08T12:11:29.362Z,42.51
2023-05-08T12:13:57.344Z,42.01
2023-05-08T12:16:26.364Z,41.75
2023-05-08T12:18:57.510Z,41.93
2023-05-08T12:21:27.630Z,42.15
2023-05-08T12:23:56.150Z,41.68
2023-05-08T12:26:24.053Z,41.22
2023-05-08T12:28:56.181Z,41.99
2023-05-08T12:31:24.585Z,42.42
2023-05-08T12:33:53.623Z,42.13
2023-05-08T12:36:21.562Z,41.56
2023-05-08T12:38:52.174Z,41.48
2023-05-08T12:41:25.019Z,41.99
2023-05-08T12:43:52.930Z,41.20
2023-05-08T12:46:22.462Z,41.99
2023-05-08T12:48:50.380Z,42.21
2023-05-08T12:51:18.348Z,42.50
2023-05-08T12:53:47.721Z,41.64
2023-05-08T12:56:23.502Z,41.92
2023-05-08T12:58:51.395Z,42.55
2023-05-08T13:01:19.375Z,42.93
2023-05-08T13:04:01.769Z,42.18
2023-05-08T13:06:31.845Z,42.78
2023-05-08T13:08:59.793Z,42.48
2023-05-08T13:11:33.354Z,41.80
2023-05-08T13:14:01.754Z,40.63
2023-05-08T13:16:29.859Z,41.61
2023-05-08T13:18:57.761Z,41.79
2023-05-08T13:21:27.519Z,41.52
2023-05-08T13:23:56.710Z,41.76
2023-05-08T13:26:25.735Z,41.94
2023-05-08T13:28:56.625Z,41.99
2023-05-08T13:31:24.971Z,42.75
2023-05-08T13:33:52.923Z,42.16
2023-05-08T13:36:21.561Z,42.79
2023-05-08T13:38:51.308Z,42.20
2023-05-08T13:41:19.254Z,42.08
2023-05-08T13:43:48.342Z,42.01
2023-05-08T13:46:17.759Z,41.45
2023-05-08T13:48:45.724Z,41.53
2023-05-08T13:51:13.647Z,41.42
2023-05-08T13:53:41.618Z,40.94
2023-05-08T13:56:09.444Z,41.69
2023-05-08T13:58:37.440Z,41.53
2023-05-08T14:01:21.782Z,41.23
2023-05-08T14:03:51.830Z,41.49
2023-05-08T14:06:20.575Z,42.32
2023-05-08T14:08:50.608Z,43.89
2023-05-08T14:11:19.493Z,45.09
2023-05-08T14:13:47.433Z,45.14
2023-05-08T14:16:16.248Z,45.25
2023-05-08T14:18:44.295Z,45.20
2023-05-08T14:21:13.485Z,44.92
2023-05-08T14:23:41.407Z,44.66
2023-05-08T14:26:09.266Z,43.98
2023-05-08T14:28:37.160Z,44.28
2023-05-08T14:31:05.097Z,44.85
2023-05-08T14:33:33.010Z,44.27
2023-05-08T14:36:00.939Z,44.48
2023-05-08T14:38:30.220Z,45.44
2023-05-08T14:40:58.234Z,44.02
2023-05-08T14:43:26.183Z,44.70
2023-05-08T14:45:54.157Z,44.80
2023-05-08T14:48:22.183Z,45.27
2023-05-08T14:50:50.113Z,45.35
2023-05-08T14:53:18.190Z,44.74
2023-05-08T14:55:47.862Z,44.93
2023-05-08T14:58:15.953Z,44.76
2023-05-08T15:00:43.839Z,45.48
2023-05-08T15:03:12.059Z,45.75
2023-05-08T15:05:40.254Z,45.05
2023-05-08T15:08:08.601Z,45.30
2023-05-08T15:10:36.697Z,45.92
2023-05-08T15:13:06.001Z,45.26
2023-05-08T15:15:34.054Z,45.29
2023-05-08T15:18:02.015Z,45.55
2023-05-08T15:20:30.175Z,45.73
2023-05-08T15:22:58.009Z,45.81
2023-05-08T15:25:26.376Z,45.96
2023-05-08T15:27:54.264Z,46.44
2023-05-08T15:30:23.788Z,46.69
2023-05-08T15:32:52.858Z,47.82
2023-05-08T15:35:20.897Z,49.02
2023-05-08T15:37:48.828Z,50.58
2023-05-08T15:40:16.979Z,51.73
2023-05-08T15:42:44.885Z,52.93
2023-05-08T15:45:12.918Z,53.12
2023-05-08T15:47:42.319Z,53.96
2023-05-08T15:50:10.899Z,54.67
2023-05-08T15:52:38.826Z,55.04
2023-05-08T15:55:07.440Z,54.66
2023-05-08T15:57:35.301Z,54.95
2023-05-08T16:00:03.247Z,54.71
2023-05-08T16:02:31.270Z,54.89
2023-05-08T16:05:00.577Z,55.42
2023-05-08T16:07:28.499Z,55.67
2023-05-08T16:09:56.420Z,56.55
2023-05-08T16:12:24.297Z,56.54
2023-05-08T16:14:52.232Z,57.94
2023-05-08T16:17:20.150Z,58.12
2023-05-08T16:19:48.061Z,58.79
2023-05-08T16:22:17.480Z,59.69
2023-05-08T16:24:45.449Z,61.51
2023-05-08T16:27:13.439Z,64.00
2023-05-08T16:29:41.330Z,67.46
2023-05-08T16:32:09.304Z,70.17
2023-05-08T16:34:37.777Z,73.45
2023-05-08T16:37:05.714Z,76.37
2023-05-08T16:39:35.915Z,80.87
2023-05-08T16:42:03.897Z,85.66
2023-05-08T16:44:31.792Z,90.97
2023-05-08T16:46:59.785Z,97.12
2023-05-08T16:49:27.804Z,100.00
2023-05-08T16:51:55.805Z,100.00
2023-05-08T16:54:23.913Z,100.00
2023-05-08T16:56:53.318Z,100.00
2023-05-08T16:59:21.253Z,100.00
2023-05-08T17:01:49.252Z,100.00
2023-05-08T17:04:17.205Z,100.00
2023-05-08T17:06:45.857Z,100.00
2023-05-08T17:09:13.812Z,100.00
2023-05-08T17:11:41.795Z,100.00
2023-05-08T17:14:11.122Z,100.00
2023-05-08T17:16:39.326Z,100.00
2023-05-08T17:19:07.266Z,100.00
2023-05-08T17:21:35.221Z,100.00
2023-05-08T17:24:03.268Z,100.00
2023-05-08T17:26:33.513Z,100.00
2023-05-08T17:29:01.531Z,100.00
2023-05-08T17:31:30.921Z,100.00
2023-05-08T17:33:58.985Z,100.00
2023-05-08T17:36:26.967Z,100.00
2023-05-08T17:38:54.984Z,100.00
2023-05-08T17:41:23.132Z,100.00
2023-05-08T17:43:51.078Z,100.00
2023-05-08T17:46:19.109Z,100.00
2023-05-08T17:48:48.608Z,100.00
2023-05-08T17:51:16.617Z,100.00
2023-05-08T17:53:44.668Z,100.00
2023-05-08T17:56:12.702Z,100.00
2023-05-08T17:58:41.029Z,100.00
2023-05-08T18:01:08.958Z,100.00
2023-05-08T18:03:37.005Z,100.00
2023-05-08T18:06:06.700Z,100.00
2023-05-08T18:08:35.226Z,100.00
2023-05-08T18:11:03.156Z,100.00
2023-05-08T18:13:31.117Z,100.00
2023-05-08T18:15:59.055Z,100.00
2023-05-08T18:18:27.008Z,100.00
2023-05-08T18:20:54.868Z,100.00
2023-05-08T18:23:24.206Z,100.00
2023-05-08T18:25:52.134Z,100.00
2023-05-08T18:28:20.083Z,100.00
2023-05-08T18:30:48.530Z,100.00
2023-05-08T18:33:16.447Z,100.00
2023-05-08T18:35:44.365Z,100.00
2023-05-08T18:38:12.655Z,100.00
2023-05-08T18:40:41.896Z,100.00
2023-05-08T18:43:09.790Z,100.00
2023-05-08T18:45:39.727Z,100.00
2023-05-08T18:48:07.778Z,100.00
2023-05-08T18:50:35.821Z,100.00
2023-05-08T18:53:03.874Z,100.00
2023-05-08T18:55:31.802Z,100.00
2023-05-08T18:58:01.124Z,100.00
2023-05-08T19:00:29.058Z,100.00
2023-05-08T19:02:57.084Z,100.00
2023-05-08T19:05:25.220Z,100.00
2023-05-08T19:07:53.092Z,100.00
2023-05-08T19:10:21.149Z,100.00
2023-05-08T19:12:50.734Z,100.00
2023-05-08T19:15:20.381Z,100.00
2023-05-08T19:17:48.328Z,100.00
2023-05-08T19:20:16.499Z,100.00
2023-05-08T19:22:44.677Z,100.00
2023-05-08T19:25:13.006Z,100.00
2023-05-08T19:27:41.025Z,100.00
2023-05-08T19:30:10.054Z,100.00
2023-05-08T19:32:39.531Z,100.00
2023-05-08T19:35:09.165Z,100.00
2023-05-08T19:37:40.376Z,100.00
2023-05-08T19:40:09.539Z,100.00
2023-05-08T19:42:37.569Z,100.00
2023-05-08T19:45:06.216Z,100.00
2023-05-08T19:47:34.160Z,100.00
2023-05-08T19:50:03.457Z,100.00
2023-05-08T19:52:31.442Z,100.00
2023-05-08T19:54:59.358Z,100.00
2023-05-08T19:57:27.279Z,100.00
2023-05-08T19:59:56.003Z,100.00
2023-05-08T20:02:24.027Z,100.00
2023-05-08T20:05:18.867Z,100.00
2023-05-08T20:07:41.425Z,100.00
2023-05-08T20:10:10.215Z,100.00
2023-05-08T20:12:38.157Z,100.00
2023-05-08T20:15:06.990Z,100.00
2023-05-08T20:17:34.948Z,100.00
2023-05-08T20:20:02.935Z,100.00
2023-05-08T20:22:30.833Z,100.00
2023-05-08T20:25:01.534Z,100.00
2023-05-08T20:27:31.535Z,100.00
2023-05-08T20:29:59.587Z,100.00
2023-05-08T20:32:27.560Z,100.00
2023-05-08T20:34:55.503Z,100.00
2023-05-08T20:37:23.522Z,100.00
2023-05-08T20:39:51.417Z,100.00
2023-05-08T20:42:20.699Z,100.00
2023-05-08T20:44:48.623Z,100.00
2023-05-08T20:47:16.531Z,100.00
2023-05-08T20:49:44.436Z,100.00
2023-05-08T20:52:12.338Z,100.00
2023-05-08T20:54:40.245Z,100.00
2023-05-08T20:57:08.285Z,100.00
2023-05-08T20:59:37.535Z,100.00
2023-05-08T21:02:05.481Z,100.00
2023-05-08T21:04:33.356Z,100.00
2023-05-08T21:07:02.432Z,100.00
2023-05-08T21:09:30.590Z,100.00
2023-05-08T21:11:58.491Z,100.00
2023-05-08T21:14:26.407Z,100.00
2023-05-08T21:16:55.935Z,100.00
2023-05-08T21:19:23.897Z,100.00
2023-05-08T21:21:51.799Z,100.00
2023-05-08T21:24:19.670Z,100.00
2023-05-08T21:26:47.575Z,100.00
2023-05-08T21:29:15.495Z,100.00
2023-05-08T21:31:43.501Z,100.00
2023-05-08T21:34:13.487Z,100.00
2023-05-08T21:36:41.445Z,100.00
2023-05-08T21:39:09.465Z,100.00
2023-05-08T21:41:37.358Z,100.00
2023-05-08T21:44:05.436Z,100.00
2023-05-08T21:46:33.640Z,100.00
2023-05-08T21:49:01.604Z,100.00
2023-05-08T21:51:31.408Z,100.00
2023-05-08T21:53:59.414Z,100.00
2023-05-08T21:56:27.307Z,100.00
2023-05-08T21:58:55.628Z,100.00
2023-05-08T22:01:23.546Z,100.00
2023-05-08T22:03:51.625Z,100.00
2023-05-08T22:06:19.579Z,100.00
2023-05-08T22:08:48.956Z,100.00
2023-05-08T22:11:16.845Z,100.00
2023-05-08T22:13:44.736Z,100.00
2023-05-08T22:16:12.690Z,100.00
2023-05-08T22:18:40.767Z,100.00
2023-05-08T22:21:08.723Z,100.00
2023-05-08T22:23:36.680Z,100.00
2023-05-08T22:26:06.028Z,100.00
2023-05-08T22:28:33.860Z,100.00
2023-05-08T22:31:01.772Z,100.00
2023-05-08T22:33:32.684Z,100.00
2023-05-08T22:36:00.696Z,100.00
2023-05-08T22:38:28.546Z,100.00
2023-05-08T22:40:57.519Z,100.00
2023-05-08T22:43:27.298Z,100.00
2023-05-08T22:45:55.455Z,100.00
2023-05-08T22:48:23.491Z,100.00
2023-05-08T22:50:51.796Z,100.00
2023-05-08T22:53:19.757Z,100.00
2023-05-08T22:55:47.738Z,100.00
2023-05-08T22:58:15.741Z,100.00
2023-05-08T23:00:45.029Z,100.00
2023-05-08T23:03:14.011Z,100.00
2023-05-08T23:05:41.936Z,100.00
2023-05-08T23:08:09.784Z,100.00
2023-05-08T23:10:37.754Z,100.00
2023-05-08T23:13:05.723Z,100.00
2023-05-08T23:15:33.699Z,100.00
2023-05-08T23:18:03.072Z,100.00
2023-05-08T23:20:31.148Z,100.00
2023-05-08T23:22:59.182Z,100.00
2023-05-08T23:25:27.396Z,100.00
2023-05-08T23:27:55.293Z,100.00
2023-05-08T23:30:23.184Z,100.00
2023-05-08T23:32:51.142Z,100.00
2023-05-08T23:35:20.550Z,100.00
2023-05-08T23:37:48.568Z,100.00
2023-05-08T23:40:17.432Z,100.00
2023-05-08T23:42:45.333Z,100.00
2023-05-08T23:45:13.388Z,100.00
2023-05-08T23:47:41.529Z,100.00
2023-05-08T23:50:09.873Z,100.00
2023-05-08T23:52:39.143Z,100.00
2023-05-08T23:55:08.042Z,100.00
2023-05-08T23:57:36.164Z,100.00
